la Garriga, Spain
Current Conditions -  °F | °C
As of 8:00 AM on Thursday 18 Dec 2014 (Local Time) from LELL Reporting Station
Few Clouds Few Clouds  
Wind Chill: 46°   Ceiling: Unl
Heat Index: 46°   Visibility: 6mi
Dew Point: 43°   Wind: 1mph
Humidity: 87%   Direction: 260°W
Pressure: 30.18"   Gusts: NA
Location:  41.68°N, 2.28°E
Report Text: LELL 180700Z 26001KT 9999 FEW080 08/06 Q1022
Loading
Personal Weather Stations






























Interactive Weather Map New forecast layout! Learn more

10-Day Weather Forecast

Advertisements
Track Severe Weather on mobile